LEVC/VLC METAR and TAF weather

Enter ICAO airport designator
Station Type Date Time Source
LEVC METAR 2021/07/29 03:30 UTC NOAA

LEVC 290330Z 32004KT 9999 FEW016 23/20 Q1015 NOSIG


Station Type Date Time Source
LEVC Decoded METAR 2021/07/29 03:30 UTC NOAA

Valencia / Aeropuerto, Spain (LEVC) 39-30N 000-28W 62M
Jul 28, 2021 - 11:30 PM EDT / 2021.07.29 0330 UTC
Wind: from the NW (320 degrees) at 5 MPH (4 KT):0
Visibility: greater than 7 mile(s):0
Sky conditions: mostly clear
Temperature: 73 F (23 C)
Dew Point: 68 F (20 C)
Relative Humidity: 83%
Pressure (altimeter): 29.97 in. Hg (1015 hPa)
ob: LEVC 290330Z 32004KT 9999 FEW016 23/20 Q1015 NOSIG
cycle: 3

Station Type Date Time Source
LEVC TAF 2021/07/28 18:27 UTC NOAA

TAF LEVC 281700Z 2818/2918 12010KT 9999 SCT025 TX29/2912Z TN21/2906Z
BECMG 2820/2823 VRB03KT PROB30
TEMPO 2900/2906 BKN014
BECMG 2908/2910 10010KT

Example: see airport list